sensor_id;sensor_type;location;lat;lon;timestamp;pressure;altitude;pressure_sealevel;temperature;humidity
62942;BME280;49042;47.318;19.874;2023-08-24T00:01:26;100549.47;;;21.80;100.00
62942;BME280;49042;47.318;19.874;2023-08-24T00:04:28;100548.78;;;21.64;100.00
62942;BME280;49042;47.318;19.874;2023-08-24T00:07:30;100546.13;;;21.65;100.00
62942;BME280;49042;47.318;19.874;2023-08-24T00:10:31;100552.88;;;21.90;100.00
62942;BME280;49042;47.318;19.874;2023-08-24T00:13:34;100555.56;;;21.87;100.00
62942;BME280;49042;47.318;19.874;2023-08-24T00:16:36;100551.97;;;21.94;100.00
62942;BME280;49042;47.318;19.874;2023-08-24T00:19:37;100549.47;;;21.80;100.00
62942;BME280;49042;47.318;19.874;2023-08-24T00:22:39;100547.72;;;21.77;100.00
62942;BME280;49042;47.318;19.874;2023-08-24T00:25:41;100547.84;;;21.69;100.00
62942;BME280;49042;47.318;19.874;2023-08-24T00:28:43;100551.97;;;21.23;100.00
62942;BME280;49042;47.318;19.874;2023-08-24T00:31:45;100555.28;;;21.40;100.00
62942;BME280;49042;47.318;19.874;2023-08-24T00:34:46;100553.59;;;21.33;100.00
62942;BME280;49042;47.318;19.874;2023-08-24T00:37:48;100557.44;;;21.08;100.00
62942;BME280;49042;47.318;19.874;2023-08-24T00:40:52;100571.66;;;20.98;100.00
62942;BME280;49042;47.318;19.874;2023-08-24T00:43:55;100567.16;;;21.05;100.00
62942;BME280;49042;47.318;19.874;2023-08-24T00:46:58;100568.13;;;20.96;100.00
62942;BME280;49042;47.318;19.874;2023-08-24T00:50:00;100573.41;;;20.96;100.00
62942;BME280;49042;47.318;19.874;2023-08-24T00:53:03;100562.78;;;21.05;100.00
62942;BME280;49042;47.318;19.874;2023-08-24T00:56:05;100559.19;;;21.06;100.00
62942;BME280;49042;47.318;19.874;2023-08-24T00:59:07;100560.00;;;21.15;100.00
62942;BME280;49042;47.318;19.874;2023-08-24T01:02:09;100560.13;;;21.01;100.00
62942;BME280;49042;47.318;19.874;2023-08-24T01:05:11;100558.31;;;21.04;100.00
62942;BME280;49042;47.318;19.874;2023-08-24T01:08:13;100551.31;;;20.97;100.00
62942;BME280;49042;47.318;19.874;2023-08-24T01:11:28;100549.53;;;21.01;100.00
62942;BME280;49042;47.318;19.874;2023-08-24T01:18:14;100554.59;;;21.24;100.00
62942;BME280;49042;47.318;19.874;2023-08-24T01:21:18;100559.00;;;21.24;100.00
62942;BME280;49042;47.318;19.874;2023-08-24T01:24:36;100550.47;;;20.95;100.00
62942;BME280;49042;47.318;19.874;2023-08-24T01:27:40;100544.12;;;21.12;100.00
62942;BME280;49042;47.318;19.874;2023-08-24T01:30:43;100549.69;;;20.83;100.00
62942;BME280;49042;47.318;19.874;2023-08-24T01:33:45;100551.50;;;20.80;100.00
62942;BME280;49042;47.318;19.874;2023-08-24T01:36:47;100548.84;;;20.78;100.00
62942;BME280;49042;47.318;19.874;2023-08-24T01:40:04;100548.00;;;20.78;100.00
62942;BME280;49042;47.318;19.874;2023-08-24T01:43:18;100550.56;;;20.85;100.00
62942;BME280;49042;47.318;19.874;2023-08-24T01:46:43;100557.69;;;20.80;100.00
62942;BME280;49042;47.318;19.874;2023-08-24T01:49:45;100556.91;;;20.69;100.00
62942;BME280;49042;47.318;19.874;2023-08-24T01:52:47;100557.75;;;20.71;100.00
62942;BME280;49042;47.318;19.874;2023-08-24T01:55:49;100567.38;;;20.83;100.00
62942;BME280;49042;47.318;19.874;2023-08-24T01:58:50;100557.06;;;20.53;100.00
62942;BME280;49042;47.318;19.874;2023-08-24T02:01:52;100564.12;;;20.51;100.00
62942;BME280;49042;47.318;19.874;2023-08-24T02:04:54;100562.34;;;20.51;100.00
62942;BME280;49042;47.318;19.874;2023-08-24T02:07:56;100565.16;;;20.34;100.00
62942;BME280;49042;47.318;19.874;2023-08-24T02:10:58;100561.44;;;20.56;100.00
62942;BME280;49042;47.318;19.874;2023-08-24T02:14:00;100563.03;;;20.77;100.00
62942;BME280;49042;47.318;19.874;2023-08-24T02:17:02;100562.87;;;20.91;100.00
62942;BME280;49042;47.318;19.874;2023-08-24T02:20:05;100558.59;;;20.76;100.00
62942;BME280;49042;47.318;19.874;2023-08-24T02:23:09;100551.53;;;20.76;100.00
62942;BME280;49042;47.318;19.874;2023-08-24T02:26:11;100543.66;;;20.69;100.00
62942;BME280;49042;47.318;19.874;2023-08-24T02:29:13;100548.91;;;20.72;100.00
62942;BME280;49042;47.318;19.874;2023-08-24T02:32:15;100545.34;;;20.74;100.00
62942;BME280;49042;47.318;19.874;2023-08-24T02:35:17;100546.25;;;20.75;100.00
62942;BME280;49042;47.318;19.874;2023-08-24T02:38:19;100553.31;;;20.74;100.00
62942;BME280;49042;47.318;19.874;2023-08-24T02:41:21;100554.28;;;20.67;100.00
62942;BME280;49042;47.318;19.874;2023-08-24T02:44:23;100551.66;;;20.62;100.00
62942;BME280;49042;47.318;19.874;2023-08-24T02:47:24;100543.75;;;20.59;100.00
62942;BME280;49042;47.318;19.874;2023-08-24T02:50:26;100543.78;;;20.54;100.00
62942;BME280;49042;47.318;19.874;2023-08-24T02:53:28;100544.66;;;20.55;100.00
62942;BME280;49042;47.318;19.874;2023-08-24T02:56:30;100551.88;;;20.39;100.00
62942;BME280;49042;47.318;19.874;2023-08-24T02:59:32;100558.72;;;20.60;100.00
62942;BME280;49042;47.318;19.874;2023-08-24T03:02:34;100554.41;;;20.53;100.00
62942;BME280;49042;47.318;19.874;2023-08-24T03:05:35;100547.47;;;20.36;100.00
62942;BME280;49042;47.318;19.874;2023-08-24T03:08:37;100554.41;;;20.50;100.00
62942;BME280;49042;47.318;19.874;2023-08-24T03:11:39;100560.50;;;20.61;100.00
62942;BME280;49042;47.318;19.874;2023-08-24T03:14:41;100554.25;;;20.69;100.00
62942;BME280;49042;47.318;19.874;2023-08-24T03:17:42;100552.59;;;20.57;100.00
62942;BME280;49042;47.318;19.874;2023-08-24T03:20:46;100546.50;;;20.47;100.00
62942;BME280;49042;47.318;19.874;2023-08-24T03:23:47;100545.50;;;20.63;100.00
62942;BME280;49042;47.318;19.874;2023-08-24T03:26:49;100557.03;;;20.54;100.00
62942;BME280;49042;47.318;19.874;2023-08-24T03:29:54;100551.88;;;20.36;100.00
62942;BME280;49042;47.318;19.874;2023-08-24T03:32:56;100554.50;;;20.40;100.00
62942;BME280;49042;47.318;19.874;2023-08-24T03:35:58;100553.56;;;20.48;100.00
62942;BME280;49042;47.318;19.874;2023-08-24T03:38:59;100551.09;;;20.24;100.00
62942;BME280;49042;47.318;19.874;2023-08-24T03:42:01;100548.63;;;19.91;100.00
62942;BME280;49042;47.318;19.874;2023-08-24T03:45:03;100545.16;;;19.84;100.00
62942;BME280;49042;47.318;19.874;2023-08-24T03:48:05;100539.03;;;19.73;100.00
62942;BME280;49042;47.318;19.874;2023-08-24T03:51:07;100539.03;;;19.73;100.00
62942;BME280;49042;47.318;19.874;2023-08-24T03:54:09;100543.38;;;19.88;100.00
62942;BME280;49042;47.318;19.874;2023-08-24T03:57:10;100551.16;;;20.16;100.00
62942;BME280;49042;47.318;19.874;2023-08-24T04:00:13;100552.91;;;20.20;100.00
62942;BME280;49042;47.318;19.874;2023-08-24T04:03:15;100556.38;;;20.27;100.00
62942;BME280;49042;47.318;19.874;2023-08-24T04:06:18;100558.06;;;20.36;100.00
62942;BME280;49042;47.318;19.874;2023-08-24T04:09:23;100549.37;;;20.18;100.00
62942;BME280;49042;47.318;19.874;2023-08-24T04:12:24;100544.12;;;20.09;100.00
62942;BME280;49042;47.318;19.874;2023-08-24T04:15:26;100545.06;;;19.98;100.00
62942;BME280;49042;47.318;19.874;2023-08-24T04:18:29;100544.12;;;20.04;100.00
62942;BME280;49042;47.318;19.874;2023-08-24T04:21:31;100547.66;;;20.05;100.00
62942;BME280;49042;47.318;19.874;2023-08-24T04:24:32;100552.69;;;20.49;100.00
62942;BME280;49042;47.318;19.874;2023-08-24T04:27:34;100561.31;;;20.70;100.00
62942;BME280;49042;47.318;19.874;2023-08-24T04:30:36;100560.56;;;20.55;100.00
62942;BME280;49042;47.318;19.874;2023-08-24T04:33:38;100568.22;;;20.85;100.00
62942;BME280;49042;47.318;19.874;2023-08-24T04:36:39;100564.72;;;20.83;100.00
62942;BME280;49042;47.318;19.874;2023-08-24T04:39:41;100568.87;;;21.12;100.00
62942;BME280;49042;47.318;19.874;2023-08-24T04:42:43;100569.88;;;20.99;100.00
62942;BME280;49042;47.318;19.874;2023-08-24T04:45:48;100566.50;;;20.82;100.00
62942;BME280;49042;47.318;19.874;2023-08-24T04:48:50;100569.06;;;20.90;100.00
62942;BME280;49042;47.318;19.874;2023-08-24T04:51:52;100574.78;;;21.35;100.00
62942;BME280;49042;47.318;19.874;2023-08-24T04:54:53;100572.25;;;21.24;100.00
62942;BME280;49042;47.318;19.874;2023-08-24T04:57:55;100576.84;;;21.11;100.00
62942;BME280;49042;47.318;19.874;2023-08-24T05:00:57;100573.94;;;21.34;100.00
62942;BME280;49042;47.318;19.874;2023-08-24T05:03:59;100577.59;;;21.22;100.00
62942;BME280;49042;47.318;19.874;2023-08-24T05:07:01;100593.09;;;21.58;100.00
62942;BME280;49042;47.318;19.874;2023-08-24T05:10:03;100584.31;;;21.53;100.00
62942;BME280;49042;47.318;19.874;2023-08-24T05:13:05;100587.47;;;21.83;100.00
62942;BME280;49042;47.318;19.874;2023-08-24T05:16:07;100598.69;;;22.06;100.00
62942;BME280;49042;47.318;19.874;2023-08-24T05:19:09;100595.34;;;21.93;100.00
62942;BME280;49042;47.318;19.874;2023-08-24T05:22:10;100596.78;;;22.14;100.00
62942;BME280;49042;47.318;19.874;2023-08-24T05:25:13;100595.81;;;22.20;100.00
62942;BME280;49042;47.318;19.874;2023-08-24T05:28:14;100593.00;;;22.30;100.00
62942;BME280;49042;47.318;19.874;2023-08-24T05:31:16;100594.66;;;22.39;100.00
62942;BME280;49042;47.318;19.874;2023-08-24T05:34:22;100593.97;;;22.81;100.00
62942;BME280;49042;47.318;19.874;2023-08-24T05:37:24;100595.81;;;22.79;100.00
62942;BME280;49042;47.318;19.874;2023-08-24T05:40:26;100601.72;;;22.95;100.00
62942;BME280;49042;47.318;19.874;2023-08-24T05:43:27;100601.31;;;23.16;100.00
62942;BME280;49042;47.318;19.874;2023-08-24T05:46:29;100601.44;;;23.09;100.00
62942;BME280;49042;47.318;19.874;2023-08-24T05:49:31;100600.81;;;23.42;100.00
62942;BME280;49042;47.318;19.874;2023-08-24T05:52:33;100600.78;;;23.44;100.00
62942;BME280;49042;47.318;19.874;2023-08-24T05:55:35;100601.94;;;23.75;100.00
62942;BME280;49042;47.318;19.874;2023-08-24T05:58:37;100599.47;;;24.07;100.00
62942;BME280;49042;47.318;19.874;2023-08-24T06:01:38;100593.28;;;24.45;100.00
62942;BME280;49042;47.318;19.874;2023-08-24T06:04:40;100603.25;;;24.36;100.00
62942;BME280;49042;47.318;19.874;2023-08-24T06:07:42;100602.91;;;24.51;100.00
62942;BME280;49042;47.318;19.874;2023-08-24T06:10:44;100603.22;;;24.38;100.00
62942;BME280;49042;47.318;19.874;2023-08-24T06:13:45;100598.47;;;24.86;100.00
62942;BME280;49042;47.318;19.874;2023-08-24T06:16:47;100594.22;;;25.12;100.00
62942;BME280;49042;47.318;19.874;2023-08-24T06:19:50;100589.91;;;25.08;100.00
62942;BME280;49042;47.318;19.874;2023-08-24T06:22:51;100594.59;;;25.62;100.00
62942;BME280;49042;47.318;19.874;2023-08-24T06:25:53;100586.44;;;25.67;100.00
62942;BME280;49042;47.318;19.874;2023-08-24T06:28:55;100589.53;;;25.83;100.00
62942;BME280;49042;47.318;19.874;2023-08-24T06:31:57;100578.91;;;25.51;100.00
62942;BME280;49042;47.318;19.874;2023-08-24T06:34:59;100585.84;;;25.89;100.00
62942;BME280;49042;47.318;19.874;2023-08-24T06:38:04;100576.16;;;25.85;100.00
62942;BME280;49042;47.318;19.874;2023-08-24T06:41:07;100576.00;;;25.59;100.00
62942;BME280;49042;47.318;19.874;2023-08-24T06:44:13;100577.72;;;26.47;100.00
62942;BME280;49042;47.318;19.874;2023-08-24T06:47:15;100573.34;;;26.18;100.00
62942;BME280;49042;47.318;19.874;2023-08-24T06:50:17;100563.63;;;26.70;100.00
62942;BME280;49042;47.318;19.874;2023-08-24T06:53:20;100564.88;;;26.60;100.00
62942;BME280;49042;47.318;19.874;2023-08-24T06:56:22;100568.78;;;26.48;100.00
62942;BME280;49042;47.318;19.874;2023-08-24T06:59:24;100563.91;;;26.34;100.00
62942;BME280;49042;47.318;19.874;2023-08-24T07:02:26;100569.13;;;26.38;100.00
62942;BME280;49042;47.318;19.874;2023-08-24T07:05:27;100567.56;;;26.86;100.00
62942;BME280;49042;47.318;19.874;2023-08-24T07:08:30;100560.72;;;27.02;100.00
62942;BME280;49042;47.318;19.874;2023-08-24T07:11:32;100560.19;;;26.92;100.00
62942;BME280;49042;47.318;19.874;2023-08-24T07:14:34;100557.81;;;27.57;100.00
62942;BME280;49042;47.318;19.874;2023-08-24T07:17:35;100562.28;;;28.90;100.00
62942;BME280;49042;47.318;19.874;2023-08-24T07:20:37;100555.50;;;30.72;100.00
62942;BME280;49042;47.318;19.874;2023-08-24T07:23:39;100567.81;;;32.10;89.65
62942;BME280;49042;47.318;19.874;2023-08-24T07:26:41;100567.88;;;33.45;76.92
62942;BME280;49042;47.318;19.874;2023-08-24T07:29:46;100568.56;;;33.76;71.05
62942;BME280;49042;47.318;19.874;2023-08-24T07:32:48;100582.81;;;36.87;56.85
62942;BME280;49042;47.318;19.874;2023-08-24T07:35:50;100581.84;;;35.79;55.34
62942;BME280;49042;47.318;19.874;2023-08-24T07:38:52;100586.75;;;38.20;48.15
62942;BME280;49042;47.318;19.874;2023-08-24T07:41:53;100587.94;;;38.70;45.80
62942;BME280;49042;47.318;19.874;2023-08-24T07:44:55;100588.38;;;38.44;45.47
62942;BME280;49042;47.318;19.874;2023-08-24T07:47:57;100583.22;;;39.87;41.12
62942;BME280;49042;47.318;19.874;2023-08-24T07:50:59;100591.25;;;40.18;38.84
62942;BME280;49042;47.318;19.874;2023-08-24T07:54:00;100590.19;;;42.11;34.63
62942;BME280;49042;47.318;19.874;2023-08-24T07:57:02;100589.72;;;39.44;38.43
62942;BME280;49042;47.318;19.874;2023-08-24T08:00:05;100596.41;;;43.28;32.44
62942;BME280;49042;47.318;19.874;2023-08-24T08:03:09;100594.84;;;45.10;26.44
62942;BME280;49042;47.318;19.874;2023-08-24T08:06:11;100589.50;;;45.49;28.02
62942;BME280;49042;47.318;19.874;2023-08-24T08:09:14;100595.16;;;43.22;29.99
62942;BME280;49042;47.318;19.874;2023-08-24T08:12:17;100604.22;;;47.27;24.92
62942;BME280;49042;47.318;19.874;2023-08-24T08:15:19;100608.31;;;47.01;25.09
62942;BME280;49042;47.318;19.874;2023-08-24T08:18:21;100607.00;;;46.27;26.13
62942;BME280;49042;47.318;19.874;2023-08-24T08:21:23;100607.69;;;46.68;25.17
62942;BME280;49042;47.318;19.874;2023-08-24T08:24:24;100612.31;;;46.83;24.35
62942;BME280;49042;47.318;19.874;2023-08-24T08:27:26;100604.47;;;44.32;27.66
62942;BME280;49042;47.318;19.874;2023-08-24T08:30:28;100606.50;;;46.62;24.91
62942;BME280;49042;47.318;19.874;2023-08-24T08:33:30;100615.88;;;44.94;27.59
62942;BME280;49042;47.318;19.874;2023-08-24T08:36:32;100617.75;;;46.76;24.62
62942;BME280;49042;47.318;19.874;2023-08-24T08:39:33;100618.28;;;45.70;25.22
62942;BME280;49042;47.318;19.874;2023-08-24T08:42:35;100607.31;;;43.72;27.72
62942;BME280;49042;47.318;19.874;2023-08-24T08:45:38;100610.00;;;38.45;34.96
62942;BME280;49042;47.318;19.874;2023-08-24T08:48:40;100602.97;;;39.17;37.11
62942;BME280;49042;47.318;19.874;2023-08-24T08:51:42;100609.25;;;41.84;31.26
62942;BME280;49042;47.318;19.874;2023-08-24T08:54:44;100616.19;;;45.49;26.74
62942;BME280;49042;47.318;19.874;2023-08-24T08:57:48;100611.84;;;46.94;24.77
62942;BME280;49042;47.318;19.874;2023-08-24T09:00:50;100613.69;;;43.81;27.59
62942;BME280;49042;47.318;19.874;2023-08-24T09:03:53;100599.75;;;40.45;31.99
62942;BME280;49042;47.318;19.874;2023-08-24T09:06:55;100596.28;;;40.53;34.63
62942;BME280;49042;47.318;19.874;2023-08-24T09:09:57;100594.34;;;42.42;30.32
62942;BME280;49042;47.318;19.874;2023-08-24T09:12:59;100593.13;;;46.74;25.15
62942;BME280;49042;47.318;19.874;2023-08-24T09:16:06;100601.22;;;47.28;23.61
62942;BME280;49042;47.318;19.874;2023-08-24T09:19:11;100597.13;;;49.48;21.50
62942;BME280;49042;47.318;19.874;2023-08-24T09:22:14;100600.63;;;49.08;21.50
62942;BME280;49042;47.318;19.874;2023-08-24T09:25:16;100608.53;;;50.22;20.80
62942;BME280;49042;47.318;19.874;2023-08-24T09:28:27;100595.63;;;41.46;27.61
62942;BME280;49042;47.318;19.874;2023-08-24T09:31:35;100589.09;;;38.67;34.00
62942;BME280;49042;47.318;19.874;2023-08-24T09:34:38;100594.50;;;43.97;25.59
62942;BME280;49042;47.318;19.874;2023-08-24T09:37:39;100596.31;;;45.30;23.95
62942;BME280;49042;47.318;19.874;2023-08-24T09:40:45;100594.56;;;46.70;22.88
62942;BME280;49042;47.318;19.874;2023-08-24T09:43:49;100593.50;;;46.71;23.32
62942;BME280;49042;47.318;19.874;2023-08-24T09:46:50;100591.91;;;47.30;22.49
62942;BME280;49042;47.318;19.874;2023-08-24T09:49:52;100591.06;;;47.66;21.54
62942;BME280;49042;47.318;19.874;2023-08-24T09:52:56;100588.66;;;46.73;22.23
62942;BME280;49042;47.318;19.874;2023-08-24T09:56:02;100585.28;;;48.34;21.06
62942;BME280;49042;47.318;19.874;2023-08-24T09:59:15;100589.84;;;48.20;21.13
62942;BME280;49042;47.318;19.874;2023-08-24T10:02:20;100585.78;;;49.29;19.61
62942;BME280;49042;47.318;19.874;2023-08-24T10:05:26;100592.87;;;51.22;18.01
62942;BME280;49042;47.318;19.874;2023-08-24T10:08:44;100593.41;;;51.77;17.08
62942;BME280;49042;47.318;19.874;2023-08-24T10:11:53;100590.75;;;51.56;17.87
62942;BME280;49042;47.318;19.874;2023-08-24T10:14:59;100581.91;;;49.24;19.90
62942;BME280;49042;47.318;19.874;2023-08-24T10:18:04;100580.94;;;49.45;18.92
62942;BME280;49042;47.318;19.874;2023-08-24T10:21:07;100579.78;;;47.46;20.02
62942;BME280;49042;47.318;19.874;2023-08-24T10:24:11;100569.41;;;50.58;17.47
62942;BME280;49042;47.318;19.874;2023-08-24T10:27:14;100575.66;;;49.91;17.98
62942;BME280;49042;47.318;19.874;2023-08-24T10:30:16;100575.72;;;52.79;16.81
62942;BME280;49042;47.318;19.874;2023-08-24T10:33:19;100576.00;;;53.39;15.75
62942;BME280;49042;47.318;19.874;2023-08-24T10:36:22;100572.75;;;51.66;16.92
62942;BME280;49042;47.318;19.874;2023-08-24T10:39:27;100566.22;;;48.82;17.46
62942;BME280;49042;47.318;19.874;2023-08-24T10:42:48;100565.06;;;50.89;16.12
62942;BME280;49042;47.318;19.874;2023-08-24T10:48:58;100556.81;;;50.48;17.28
62942;BME280;49042;47.318;19.874;2023-08-24T10:52:22;100549.66;;;52.35;15.55
62942;BME280;49042;47.318;19.874;2023-08-24T10:55:26;100561.72;;;53.17;15.58
62942;BME280;49042;47.318;19.874;2023-08-24T10:58:33;100546.63;;;50.42;17.26
62942;BME280;49042;47.318;19.874;2023-08-24T11:01:38;100552.28;;;52.49;15.67
62942;BME280;49042;47.318;19.874;2023-08-24T11:04:40;100537.56;;;52.04;16.30
62942;BME280;49042;47.318;19.874;2023-08-24T11:07:53;100526.94;;;46.05;21.07
62942;BME280;49042;47.318;19.874;2023-08-24T11:10:55;100529.63;;;45.75;22.70
62942;BME280;49042;47.318;19.874;2023-08-24T11:14:17;100534.94;;;48.88;19.44
62942;BME280;49042;47.318;19.874;2023-08-24T11:17:30;100525.56;;;50.13;17.70
62942;BME280;49042;47.318;19.874;2023-08-24T11:20:33;100525.16;;;49.96;17.85
62942;BME280;49042;47.318;19.874;2023-08-24T11:23:35;100531.75;;;49.47;18.43
62942;BME280;49042;47.318;19.874;2023-08-24T11:26:45;100529.13;;;49.25;18.42
62942;BME280;49042;47.318;19.874;2023-08-24T11:29:58;100517.81;;;50.50;16.93
62942;BME280;49042;47.318;19.874;2023-08-24T11:33:00;100512.97;;;49.97;16.84
62942;BME280;49042;47.318;19.874;2023-08-24T11:36:03;100520.00;;;50.20;16.95
62942;BME280;49042;47.318;19.874;2023-08-24T11:39:05;100512.91;;;49.08;19.35
62942;BME280;49042;47.318;19.874;2023-08-24T11:42:07;100502.81;;;47.58;19.42
62942;BME280;49042;47.318;19.874;2023-08-24T11:45:11;100509.59;;;44.70;21.71
62942;BME280;49042;47.318;19.874;2023-08-24T11:48:16;100508.00;;;45.63;19.25
62942;BME280;49042;47.318;19.874;2023-08-24T11:51:18;100508.94;;;49.52;16.67
62942;BME280;49042;47.318;19.874;2023-08-24T11:54:35;100516.41;;;52.60;15.14
62942;BME280;49042;47.318;19.874;2023-08-24T11:57:41;100520.34;;;53.32;13.96
62942;BME280;49042;47.318;19.874;2023-08-24T12:00:43;100512.22;;;51.42;14.88
62942;BME280;49042;47.318;19.874;2023-08-24T12:03:46;100506.91;;;50.48;16.01
62942;BME280;49042;47.318;19.874;2023-08-24T12:06:48;100503.53;;;50.39;16.78
62942;BME280;49042;47.318;19.874;2023-08-24T12:09:50;100502.81;;;48.94;17.27
62942;BME280;49042;47.318;19.874;2023-08-24T12:13:02;100497.13;;;52.65;14.69
62942;BME280;49042;47.318;19.874;2023-08-24T12:16:05;100491.53;;;48.95;16.78
62942;BME280;49042;47.318;19.874;2023-08-24T12:19:07;100495.56;;;50.63;15.57
62942;BME280;49042;47.318;19.874;2023-08-24T12:22:16;100489.13;;;51.67;15.16
62942;BME280;49042;47.318;19.874;2023-08-24T12:25:18;100486.72;;;51.19;15.89
62942;BME280;49042;47.318;19.874;2023-08-24T12:28:23;100486.03;;;51.31;14.85
62942;BME280;49042;47.318;19.874;2023-08-24T12:31:28;100477.56;;;53.15;12.87
62942;BME280;49042;47.318;19.874;2023-08-24T12:34:30;100473.50;;;50.22;14.81
62942;BME280;49042;47.318;19.874;2023-08-24T12:37:32;100473.97;;;51.89;13.79
62942;BME280;49042;47.318;19.874;2023-08-24T12:40:34;100480.63;;;52.63;13.08
62942;BME280;49042;47.318;19.874;2023-08-24T12:43:35;100453.03;;;47.51;16.02
62942;BME280;49042;47.318;19.874;2023-08-24T12:46:41;100444.37;;;46.58;16.39
62942;BME280;49042;47.318;19.874;2023-08-24T12:49:43;100436.47;;;46.70;15.49
62942;BME280;49042;47.318;19.874;2023-08-24T12:52:45;100445.03;;;45.99;16.33
62942;BME280;49042;47.318;19.874;2023-08-24T12:55:46;100443.53;;;46.94;16.43
62942;BME280;49042;47.318;19.874;2023-08-24T12:58:48;100447.59;;;46.61;16.69
62942;BME280;49042;47.318;19.874;2023-08-24T13:01:50;100443.22;;;48.98;14.00
62942;BME280;49042;47.318;19.874;2023-08-24T13:04:52;100429.16;;;47.43;15.41
62942;BME280;49042;47.318;19.874;2023-08-24T13:07:53;100432.78;;;52.04;12.37
62942;BME280;49042;47.318;19.874;2023-08-24T13:10:56;100430.13;;;50.49;12.82
62942;BME280;49042;47.318;19.874;2023-08-24T13:13:58;100421.75;;;49.27;14.23
62942;BME280;49042;47.318;19.874;2023-08-24T13:17:00;100419.31;;;45.06;16.01
62942;BME280;49042;47.318;19.874;2023-08-24T13:20:01;100422.03;;;44.42;16.45
62942;BME280;49042;47.318;19.874;2023-08-24T13:23:04;100412.28;;;44.30;16.35
62942;BME280;49042;47.318;19.874;2023-08-24T13:26:17;100408.25;;;41.68;18.34
62942;BME280;49042;47.318;19.874;2023-08-24T13:29:20;100402.94;;;39.58;20.80
62942;BME280;49042;47.318;19.874;2023-08-24T13:32:22;100400.81;;;39.42;21.66
62942;BME280;49042;47.318;19.874;2023-08-24T13:35:23;100391.97;;;37.51;23.45
62942;BME280;49042;47.318;19.874;2023-08-24T13:38:25;100386.78;;;37.15;23.63
62942;BME280;49042;47.318;19.874;2023-08-24T13:41:27;100390.94;;;36.63;23.89
62942;BME280;49042;47.318;19.874;2023-08-24T13:44:28;100388.81;;;35.97;23.90
62942;BME280;49042;47.318;19.874;2023-08-24T13:47:31;100394.13;;;34.76;25.09
62942;BME280;49042;47.318;19.874;2023-08-24T13:50:33;100386.09;;;35.97;24.38
62942;BME280;49042;47.318;19.874;2023-08-24T13:53:34;100395.44;;;35.08;24.46
62942;BME280;49042;47.318;19.874;2023-08-24T13:56:36;100400.31;;;35.15;26.38
62942;BME280;49042;47.318;19.874;2023-08-24T13:59:39;100390.03;;;35.08;24.89
62942;BME280;49042;47.318;19.874;2023-08-24T14:02:40;100392.19;;;35.02;24.94
62942;BME280;49042;47.318;19.874;2023-08-24T14:05:42;100387.69;;;34.52;26.11
62942;BME280;49042;47.318;19.874;2023-08-24T14:08:45;100382.69;;;34.19;25.72
62942;BME280;49042;47.318;19.874;2023-08-24T14:11:47;100376.09;;;33.97;26.68
62942;BME280;49042;47.318;19.874;2023-08-24T14:14:49;100382.56;;;34.08;26.95
62942;BME280;49042;47.318;19.874;2023-08-24T14:17:50;100381.25;;;33.74;26.70
62942;BME280;49042;47.318;19.874;2023-08-24T14:20:52;100376.31;;;33.26;27.32
62942;BME280;49042;47.318;19.874;2023-08-24T14:23:54;100379.50;;;33.32;27.80
62942;BME280;49042;47.318;19.874;2023-08-24T14:26:56;100373.94;;;33.21;28.03
62942;BME280;49042;47.318;19.874;2023-08-24T14:29:57;100362.53;;;32.88;28.53
62942;BME280;49042;47.318;19.874;2023-08-24T14:32:59;100364.22;;;33.59;28.90
62942;BME280;49042;47.318;19.874;2023-08-24T14:36:01;100358.53;;;33.08;29.44
62942;BME280;49042;47.318;19.874;2023-08-24T14:39:03;100365.38;;;32.86;29.48
62942;BME280;49042;47.318;19.874;2023-08-24T14:42:05;100352.16;;;33.37;28.73
62942;BME280;49042;47.318;19.874;2023-08-24T14:45:07;100352.56;;;33.03;29.60
62942;BME280;49042;47.318;19.874;2023-08-24T14:48:09;100354.03;;;33.22;29.10
62942;BME280;49042;47.318;19.874;2023-08-24T14:51:11;100352.78;;;33.00;29.59
62942;BME280;49042;47.318;19.874;2023-08-24T14:54:13;100360.84;;;33.15;30.80
62942;BME280;49042;47.318;19.874;2023-08-24T14:57:16;100359.63;;;33.19;30.64
62942;BME280;49042;47.318;19.874;2023-08-24T15:00:18;100363.81;;;32.82;31.20
62942;BME280;49042;47.318;19.874;2023-08-24T15:03:20;100361.94;;;32.97;31.67
62942;BME280;49042;47.318;19.874;2023-08-24T15:06:23;100361.09;;;32.97;30.50
62942;BME280;49042;47.318;19.874;2023-08-24T15:09:24;100356.47;;;33.12;30.51
62942;BME280;49042;47.318;19.874;2023-08-24T15:12:26;100354.28;;;33.04;30.31
62942;BME280;49042;47.318;19.874;2023-08-24T15:15:28;100348.94;;;33.17;30.84
62942;BME280;49042;47.318;19.874;2023-08-24T15:18:30;100355.53;;;32.85;31.19
62942;BME280;49042;47.318;19.874;2023-08-24T15:21:31;100350.03;;;32.72;31.53
62942;BME280;49042;47.318;19.874;2023-08-24T15:24:33;100351.12;;;32.97;32.22
62942;BME280;49042;47.318;19.874;2023-08-24T15:27:36;100346.38;;;32.73;32.15
62942;BME280;49042;47.318;19.874;2023-08-24T15:30:38;100346.28;;;32.75;31.86
62942;BME280;49042;47.318;19.874;2023-08-24T15:33:40;100348.03;;;32.46;31.48
62942;BME280;49042;47.318;19.874;2023-08-24T15:36:42;100344.53;;;32.59;32.90
62942;BME280;49042;47.318;19.874;2023-08-24T15:39:43;100341.56;;;32.49;33.64
62942;BME280;49042;47.318;19.874;2023-08-24T15:42:45;100347.84;;;32.35;32.80
62942;BME280;49042;47.318;19.874;2023-08-24T15:45:49;100345.03;;;32.07;33.50